sensor_id;sensor_type;location;lat;lon;timestamp;P1;durP1;ratioP1;P2;durP2;ratioP2
70838;SDS011;58464;52.298;4.852;2022-10-15T00:00:49;24.85;;;15.82;;
70838;SDS011;58464;52.298;4.852;2022-10-15T00:03:14;32.78;;;16.42;;
70838;SDS011;58464;52.298;4.852;2022-10-15T00:05:40;28.40;;;17.45;;
70838;SDS011;58464;52.298;4.852;2022-10-15T00:08:08;31.52;;;18.30;;
70838;SDS011;58464;52.298;4.852;2022-10-15T00:10:35;30.15;;;18.40;;
70838;SDS011;58464;52.298;4.852;2022-10-15T00:13:01;29.77;;;17.55;;
70838;SDS011;58464;52.298;4.852;2022-10-15T00:15:27;27.27;;;17.33;;
70838;SDS011;58464;52.298;4.852;2022-10-15T00:17:53;35.45;;;17.33;;
70838;SDS011;58464;52.298;4.852;2022-10-15T00:20:19;33.72;;;18.63;;
70838;SDS011;58464;52.298;4.852;2022-10-15T00:22:44;31.73;;;17.02;;
70838;SDS011;58464;52.298;4.852;2022-10-15T00:25:10;32.03;;;17.73;;
70838;SDS011;58464;52.298;4.852;2022-10-15T00:27:35;29.52;;;18.55;;
70838;SDS011;58464;52.298;4.852;2022-10-15T00:30:02;31.13;;;18.80;;
70838;SDS011;58464;52.298;4.852;2022-10-15T00:32:29;33.47;;;19.75;;
70838;SDS011;58464;52.298;4.852;2022-10-15T00:34:55;31.33;;;18.90;;
70838;SDS011;58464;52.298;4.852;2022-10-15T00:37:21;36.78;;;19.63;;
70838;SDS011;58464;52.298;4.852;2022-10-15T00:39:46;34.85;;;19.40;;
70838;SDS011;58464;52.298;4.852;2022-10-15T00:42:12;32.63;;;19.88;;
70838;SDS011;58464;52.298;4.852;2022-10-15T00:44:46;35.28;;;20.48;;
70838;SDS011;58464;52.298;4.852;2022-10-15T00:47:25;31.15;;;19.52;;
70838;SDS011;58464;52.298;4.852;2022-10-15T00:52:33;36.50;;;20.63;;
70838;SDS011;58464;52.298;4.852;2022-10-15T00:55:18;34.42;;;19.30;;
70838;SDS011;58464;52.298;4.852;2022-10-15T00:57:49;37.13;;;22.02;;
70838;SDS011;58464;52.298;4.852;2022-10-15T01:00:15;35.42;;;20.27;;
70838;SDS011;58464;52.298;4.852;2022-10-15T01:02:42;44.03;;;22.13;;
70838;SDS011;58464;52.298;4.852;2022-10-15T01:05:09;35.25;;;22.38;;
70838;SDS011;58464;52.298;4.852;2022-10-15T01:07:35;44.20;;;22.35;;
70838;SDS011;58464;52.298;4.852;2022-10-15T01:10:01;33.40;;;21.00;;
70838;SDS011;58464;52.298;4.852;2022-10-15T01:15:18;39.55;;;22.02;;
70838;SDS011;58464;52.298;4.852;2022-10-15T01:40:58;38.55;;;22.77;;
70838;SDS011;58464;52.298;4.852;2022-10-15T01:43:10;34.38;;;21.35;;
70838;SDS011;58464;52.298;4.852;2022-10-15T01:45:42;41.42;;;22.33;;
70838;SDS011;58464;52.298;4.852;2022-10-15T01:48:12;35.28;;;22.92;;
70838;SDS011;58464;52.298;4.852;2022-10-15T01:50:39;44.10;;;23.52;;
70838;SDS011;58464;52.298;4.852;2022-10-15T01:53:10;36.55;;;21.63;;
70838;SDS011;58464;52.298;4.852;2022-10-15T01:55:43;37.20;;;22.50;;
70838;SDS011;58464;52.298;4.852;2022-10-15T01:58:11;39.92;;;23.92;;
70838;SDS011;58464;52.298;4.852;2022-10-15T02:00:38;39.97;;;24.75;;
70838;SDS011;58464;52.298;4.852;2022-10-15T02:03:05;39.38;;;22.80;;
70838;SDS011;58464;52.298;4.852;2022-10-15T02:05:42;41.33;;;24.08;;
70838;SDS011;58464;52.298;4.852;2022-10-15T02:08:21;42.30;;;25.05;;
70838;SDS011;58464;52.298;4.852;2022-10-15T02:18:59;39.40;;;24.65;;
70838;SDS011;58464;52.298;4.852;2022-10-15T02:21:41;40.50;;;25.38;;
70838;SDS011;58464;52.298;4.852;2022-10-15T02:24:10;41.92;;;24.30;;
70838;SDS011;58464;52.298;4.852;2022-10-15T02:26:41;43.80;;;24.37;;
70838;SDS011;58464;52.298;4.852;2022-10-15T02:29:09;44.50;;;25.65;;
70838;SDS011;58464;52.298;4.852;2022-10-15T02:31:39;55.03;;;32.88;;
70838;SDS011;58464;52.298;4.852;2022-10-15T02:34:08;45.33;;;28.13;;
70838;SDS011;58464;52.298;4.852;2022-10-15T02:36:40;39.85;;;25.17;;
70838;SDS011;58464;52.298;4.852;2022-10-15T02:39:12;45.65;;;26.38;;
70838;SDS011;58464;52.298;4.852;2022-10-15T02:41:43;44.05;;;25.25;;
70838;SDS011;58464;52.298;4.852;2022-10-15T02:44:09;42.55;;;25.20;;
70838;SDS011;58464;52.298;4.852;2022-10-15T02:46:34;41.08;;;26.17;;
70838;SDS011;58464;52.298;4.852;2022-10-15T02:49:00;39.75;;;26.27;;
70838;SDS011;58464;52.298;4.852;2022-10-15T02:51:25;45.92;;;26.27;;
70838;SDS011;58464;52.298;4.852;2022-10-15T02:53:51;37.47;;;24.63;;
70838;SDS011;58464;52.298;4.852;2022-10-15T02:56:16;44.72;;;26.80;;
70838;SDS011;58464;52.298;4.852;2022-10-15T02:58:42;44.17;;;26.00;;
70838;SDS011;58464;52.298;4.852;2022-10-15T03:01:07;43.35;;;27.63;;
70838;SDS011;58464;52.298;4.852;2022-10-15T03:03:32;42.10;;;26.45;;
70838;SDS011;58464;52.298;4.852;2022-10-15T03:05:58;43.75;;;27.92;;
70838;SDS011;58464;52.298;4.852;2022-10-15T03:08:23;43.08;;;27.02;;
70838;SDS011;58464;52.298;4.852;2022-10-15T03:10:48;48.10;;;27.38;;
70838;SDS011;58464;52.298;4.852;2022-10-15T03:13:14;43.88;;;27.02;;
70838;SDS011;58464;52.298;4.852;2022-10-15T03:15:39;51.97;;;29.23;;
70838;SDS011;58464;52.298;4.852;2022-10-15T03:18:05;50.28;;;30.23;;
70838;SDS011;58464;52.298;4.852;2022-10-15T03:20:31;50.85;;;29.70;;
70838;SDS011;58464;52.298;4.852;2022-10-15T03:22:57;44.28;;;26.67;;
70838;SDS011;58464;52.298;4.852;2022-10-15T03:25:23;51.88;;;29.38;;
70838;SDS011;58464;52.298;4.852;2022-10-15T03:27:49;53.30;;;30.00;;
70838;SDS011;58464;52.298;4.852;2022-10-15T03:30:16;47.58;;;29.65;;
70838;SDS011;58464;52.298;4.852;2022-10-15T03:32:42;50.08;;;30.10;;
70838;SDS011;58464;52.298;4.852;2022-10-15T03:35:08;47.53;;;28.17;;
70838;SDS011;58464;52.298;4.852;2022-10-15T03:37:33;45.92;;;27.13;;
70838;SDS011;58464;52.298;4.852;2022-10-15T03:39:58;45.75;;;28.23;;
70838;SDS011;58464;52.298;4.852;2022-10-15T03:42:24;48.63;;;29.98;;
70838;SDS011;58464;52.298;4.852;2022-10-15T03:44:49;49.53;;;30.00;;
70838;SDS011;58464;52.298;4.852;2022-10-15T03:47:14;50.58;;;28.45;;
70838;SDS011;58464;52.298;4.852;2022-10-15T03:49:40;51.90;;;29.83;;
70838;SDS011;58464;52.298;4.852;2022-10-15T03:52:05;52.90;;;29.83;;
70838;SDS011;58464;52.298;4.852;2022-10-15T03:54:30;46.08;;;28.85;;
70838;SDS011;58464;52.298;4.852;2022-10-15T03:56:56;51.10;;;31.35;;
70838;SDS011;58464;52.298;4.852;2022-10-15T03:59:21;50.63;;;30.52;;
70838;SDS011;58464;52.298;4.852;2022-10-15T04:01:46;48.20;;;31.13;;
70838;SDS011;58464;52.298;4.852;2022-10-15T04:04:12;49.70;;;30.35;;
70838;SDS011;58464;52.298;4.852;2022-10-15T04:06:37;48.65;;;30.30;;
70838;SDS011;58464;52.298;4.852;2022-10-15T04:09:03;54.13;;;31.90;;
70838;SDS011;58464;52.298;4.852;2022-10-15T04:11:29;51.08;;;30.70;;
70838;SDS011;58464;52.298;4.852;2022-10-15T04:13:54;47.22;;;29.27;;
70838;SDS011;58464;52.298;4.852;2022-10-15T04:16:20;53.47;;;30.60;;
70838;SDS011;58464;52.298;4.852;2022-10-15T04:18:45;46.85;;;29.88;;
70838;SDS011;58464;52.298;4.852;2022-10-15T04:21:10;46.65;;;31.17;;
70838;SDS011;58464;52.298;4.852;2022-10-15T04:23:36;50.45;;;29.50;;
70838;SDS011;58464;52.298;4.852;2022-10-15T04:26:01;49.25;;;28.80;;
70838;SDS011;58464;52.298;4.852;2022-10-15T04:28:27;45.28;;;29.67;;
70838;SDS011;58464;52.298;4.852;2022-10-15T04:30:59;45.28;;;28.83;;
70838;SDS011;58464;52.298;4.852;2022-10-15T04:33:25;53.42;;;30.50;;
70838;SDS011;58464;52.298;4.852;2022-10-15T04:36:07;45.53;;;29.48;;
70838;SDS011;58464;52.298;4.852;2022-10-15T04:38:35;49.15;;;28.90;;
70838;SDS011;58464;52.298;4.852;2022-10-15T04:41:05;51.28;;;31.15;;
70838;SDS011;58464;52.298;4.852;2022-10-15T04:43:32;49.33;;;30.15;;
70838;SDS011;58464;52.298;4.852;2022-10-15T04:45:59;44.72;;;29.70;;
70838;SDS011;58464;52.298;4.852;2022-10-15T04:48:29;49.42;;;29.75;;
70838;SDS011;58464;52.298;4.852;2022-10-15T04:51:01;47.30;;;30.63;;
70838;SDS011;58464;52.298;4.852;2022-10-15T04:53:31;48.95;;;31.45;;
70838;SDS011;58464;52.298;4.852;2022-10-15T04:56:03;50.17;;;32.35;;
70838;SDS011;58464;52.298;4.852;2022-10-15T04:58:31;53.13;;;31.92;;
70838;SDS011;58464;52.298;4.852;2022-10-15T05:00:58;53.53;;;30.50;;
70838;SDS011;58464;52.298;4.852;2022-10-15T05:03:25;57.78;;;33.63;;
70838;SDS011;58464;52.298;4.852;2022-10-15T05:05:50;46.00;;;28.60;;
70838;SDS011;58464;52.298;4.852;2022-10-15T05:08:15;49.90;;;31.50;;
70838;SDS011;58464;52.298;4.852;2022-10-15T05:10:41;49.22;;;30.35;;
70838;SDS011;58464;52.298;4.852;2022-10-15T05:13:06;46.63;;;29.90;;
70838;SDS011;58464;52.298;4.852;2022-10-15T05:15:31;52.97;;;29.52;;
70838;SDS011;58464;52.298;4.852;2022-10-15T05:17:57;48.38;;;29.45;;
70838;SDS011;58464;52.298;4.852;2022-10-15T05:20:22;42.30;;;28.67;;
70838;SDS011;58464;52.298;4.852;2022-10-15T05:22:48;50.22;;;31.88;;
70838;SDS011;58464;52.298;4.852;2022-10-15T05:25:13;50.90;;;30.83;;
70838;SDS011;58464;52.298;4.852;2022-10-15T05:27:38;49.88;;;29.75;;
70838;SDS011;58464;52.298;4.852;2022-10-15T05:30:04;41.65;;;27.30;;
70838;SDS011;58464;52.298;4.852;2022-10-15T05:32:30;45.05;;;29.90;;
70838;SDS011;58464;52.298;4.852;2022-10-15T05:34:55;45.90;;;29.55;;
70838;SDS011;58464;52.298;4.852;2022-10-15T05:37:21;44.72;;;30.75;;
70838;SDS011;58464;52.298;4.852;2022-10-15T05:39:47;47.45;;;30.27;;
70838;SDS011;58464;52.298;4.852;2022-10-15T05:42:12;46.92;;;28.08;;
70838;SDS011;58464;52.298;4.852;2022-10-15T05:44:38;49.05;;;31.05;;
70838;SDS011;58464;52.298;4.852;2022-10-15T05:47:03;52.22;;;30.50;;
70838;SDS011;58464;52.298;4.852;2022-10-15T05:49:29;46.63;;;30.55;;
70838;SDS011;58464;52.298;4.852;2022-10-15T05:51:54;48.40;;;30.08;;
70838;SDS011;58464;52.298;4.852;2022-10-15T05:54:20;49.95;;;31.63;;
70838;SDS011;58464;52.298;4.852;2022-10-15T05:56:45;49.42;;;32.17;;
70838;SDS011;58464;52.298;4.852;2022-10-15T05:59:10;59.08;;;33.20;;
70838;SDS011;58464;52.298;4.852;2022-10-15T06:01:37;49.10;;;32.95;;
70838;SDS011;58464;52.298;4.852;2022-10-15T06:04:02;49.33;;;32.50;;
70838;SDS011;58464;52.298;4.852;2022-10-15T06:06:28;52.95;;;35.78;;
70838;SDS011;58464;52.298;4.852;2022-10-15T06:08:53;51.55;;;34.70;;
70838;SDS011;58464;52.298;4.852;2022-10-15T06:11:19;59.92;;;36.85;;
70838;SDS011;58464;52.298;4.852;2022-10-15T06:13:45;53.85;;;35.63;;
70838;SDS011;58464;52.298;4.852;2022-10-15T06:16:12;53.78;;;36.28;;
70838;SDS011;58464;52.298;4.852;2022-10-15T06:18:38;56.92;;;36.08;;
70838;SDS011;58464;52.298;4.852;2022-10-15T06:21:07;66.53;;;38.08;;
70838;SDS011;58464;52.298;4.852;2022-10-15T06:23:34;58.78;;;37.58;;
70838;SDS011;58464;52.298;4.852;2022-10-15T06:26:03;64.22;;;40.13;;
70838;SDS011;58464;52.298;4.852;2022-10-15T06:28:30;64.07;;;37.72;;
70838;SDS011;58464;52.298;4.852;2022-10-15T06:30:56;67.22;;;38.92;;
70838;SDS011;58464;52.298;4.852;2022-10-15T06:33:23;59.17;;;37.97;;
70838;SDS011;58464;52.298;4.852;2022-10-15T06:35:49;70.55;;;39.67;;
70838;SDS011;58464;52.298;4.852;2022-10-15T06:38:14;74.05;;;39.70;;
70838;SDS011;58464;52.298;4.852;2022-10-15T06:40:40;70.18;;;39.08;;
70838;SDS011;58464;52.298;4.852;2022-10-15T06:43:06;66.97;;;37.85;;
70838;SDS011;58464;52.298;4.852;2022-10-15T06:45:34;70.53;;;38.22;;
70838;SDS011;58464;52.298;4.852;2022-10-15T06:48:01;69.28;;;37.88;;
70838;SDS011;58464;52.298;4.852;2022-10-15T06:50:31;74.18;;;39.45;;
70838;SDS011;58464;52.298;4.852;2022-10-15T06:52:57;86.25;;;40.22;;
70838;SDS011;58464;52.298;4.852;2022-10-15T06:55:22;63.83;;;36.25;;
70838;SDS011;58464;52.298;4.852;2022-10-15T06:57:48;69.75;;;36.15;;
70838;SDS011;58464;52.298;4.852;2022-10-15T07:00:15;59.38;;;34.25;;
70838;SDS011;58464;52.298;4.852;2022-10-15T07:02:42;70.82;;;38.13;;
70838;SDS011;58464;52.298;4.852;2022-10-15T07:05:07;66.50;;;34.38;;
70838;SDS011;58464;52.298;4.852;2022-10-15T07:07:33;66.82;;;35.75;;
70838;SDS011;58464;52.298;4.852;2022-10-15T07:09:58;70.80;;;36.00;;
70838;SDS011;58464;52.298;4.852;2022-10-15T07:12:24;62.35;;;34.10;;
70838;SDS011;58464;52.298;4.852;2022-10-15T07:14:49;57.03;;;33.05;;
70838;SDS011;58464;52.298;4.852;2022-10-15T07:17:15;52.58;;;30.67;;
70838;SDS011;58464;52.298;4.852;2022-10-15T07:19:40;46.33;;;29.58;;
70838;SDS011;58464;52.298;4.852;2022-10-15T07:22:06;48.80;;;29.23;;
70838;SDS011;58464;52.298;4.852;2022-10-15T07:24:31;48.22;;;29.00;;
70838;SDS011;58464;52.298;4.852;2022-10-15T07:26:57;44.58;;;27.98;;
70838;SDS011;58464;52.298;4.852;2022-10-15T07:29:22;44.47;;;26.98;;
70838;SDS011;58464;52.298;4.852;2022-10-15T07:31:48;46.30;;;27.73;;
70838;SDS011;58464;52.298;4.852;2022-10-15T07:34:13;37.70;;;24.50;;
70838;SDS011;58464;52.298;4.852;2022-10-15T07:36:38;39.42;;;24.80;;
70838;SDS011;58464;52.298;4.852;2022-10-15T07:39:04;37.90;;;25.83;;
70838;SDS011;58464;52.298;4.852;2022-10-15T07:41:29;33.10;;;22.98;;
70838;SDS011;58464;52.298;4.852;2022-10-15T07:43:55;40.38;;;24.88;;
70838;SDS011;58464;52.298;4.852;2022-10-15T07:46:20;35.65;;;23.90;;
70838;SDS011;58464;52.298;4.852;2022-10-15T07:48:45;39.30;;;24.90;;
70838;SDS011;58464;52.298;4.852;2022-10-15T07:51:11;38.78;;;24.10;;
70838;SDS011;58464;52.298;4.852;2022-10-15T07:53:36;47.40;;;24.85;;
70838;SDS011;58464;52.298;4.852;2022-10-15T07:56:03;42.25;;;24.92;;
70838;SDS011;58464;52.298;4.852;2022-10-15T07:58:32;43.58;;;26.80;;
70838;SDS011;58464;52.298;4.852;2022-10-15T08:01:02;57.50;;;27.65;;
70838;SDS011;58464;52.298;4.852;2022-10-15T08:03:28;65.93;;;28.10;;
70838;SDS011;58464;52.298;4.852;2022-10-15T08:05:54;50.28;;;27.10;;
70838;SDS011;58464;52.298;4.852;2022-10-15T08:08:21;58.83;;;29.83;;
70838;SDS011;58464;52.298;4.852;2022-10-15T08:10:47;60.38;;;29.80;;
70838;SDS011;58464;52.298;4.852;2022-10-15T08:13:14;62.92;;;31.83;;
70838;SDS011;58464;52.298;4.852;2022-10-15T08:15:39;62.28;;;31.52;;
70838;SDS011;58464;52.298;4.852;2022-10-15T08:18:06;58.67;;;31.60;;
70838;SDS011;58464;52.298;4.852;2022-10-15T08:20:33;63.47;;;32.22;;
70838;SDS011;58464;52.298;4.852;2022-10-15T08:23:00;59.08;;;31.48;;
70838;SDS011;58464;52.298;4.852;2022-10-15T08:25:25;66.78;;;32.88;;
70838;SDS011;58464;52.298;4.852;2022-10-15T08:27:52;64.88;;;30.73;;
70838;SDS011;58464;52.298;4.852;2022-10-15T08:30:18;56.83;;;29.85;;
70838;SDS011;58464;52.298;4.852;2022-10-15T08:32:43;56.80;;;30.27;;
70838;SDS011;58464;52.298;4.852;2022-10-15T08:35:09;62.08;;;30.83;;
70838;SDS011;58464;52.298;4.852;2022-10-15T08:37:34;50.60;;;29.17;;
70838;SDS011;58464;52.298;4.852;2022-10-15T08:39:59;54.55;;;28.95;;
70838;SDS011;58464;52.298;4.852;2022-10-15T08:42:30;56.80;;;29.85;;
70838;SDS011;58464;52.298;4.852;2022-10-15T08:45:01;59.42;;;28.85;;
70838;SDS011;58464;52.298;4.852;2022-10-15T08:47:36;52.47;;;29.30;;
70838;SDS011;58464;52.298;4.852;2022-10-15T08:50:19;50.97;;;27.95;;
70838;SDS011;58464;52.298;4.852;2022-10-15T08:52:53;45.72;;;25.70;;
70838;SDS011;58464;52.298;4.852;2022-10-15T08:55:22;44.30;;;25.15;;
70838;SDS011;58464;52.298;4.852;2022-10-15T08:57:52;35.83;;;22.33;;
70838;SDS011;58464;52.298;4.852;2022-10-15T09:00:34;37.63;;;23.13;;
70838;SDS011;58464;52.298;4.852;2022-10-15T09:06:24;29.42;;;19.08;;
70838;SDS011;58464;52.298;4.852;2022-10-15T09:14:27;24.83;;;16.75;;
70838;SDS011;58464;52.298;4.852;2022-10-15T09:16:56;28.25;;;16.70;;
70838;SDS011;58464;52.298;4.852;2022-10-15T09:19:25;24.85;;;16.58;;
70838;SDS011;58464;52.298;4.852;2022-10-15T09:21:53;23.27;;;15.98;;
70838;SDS011;58464;52.298;4.852;2022-10-15T09:24:20;24.33;;;16.63;;
70838;SDS011;58464;52.298;4.852;2022-10-15T09:26:52;22.67;;;15.57;;
70838;SDS011;58464;52.298;4.852;2022-10-15T09:34:40;21.35;;;16.05;;
70838;SDS011;58464;52.298;4.852;2022-10-15T09:37:30;24.77;;;16.30;;
70838;SDS011;58464;52.298;4.852;2022-10-15T09:40:43;22.38;;;15.02;;
70838;SDS011;58464;52.298;4.852;2022-10-15T09:43:22;24.83;;;14.75;;
70838;SDS011;58464;52.298;4.852;2022-10-15T09:45:55;20.60;;;14.57;;
70838;SDS011;58464;52.298;4.852;2022-10-15T09:48:21;17.52;;;13.50;;
70838;SDS011;58464;52.298;4.852;2022-10-15T09:51:11;21.85;;;13.55;;
70838;SDS011;58464;52.298;4.852;2022-10-15T09:54:02;20.00;;;13.75;;
70838;SDS011;58464;52.298;4.852;2022-10-15T09:56:40;20.52;;;14.40;;
70838;SDS011;58464;52.298;4.852;2022-10-15T09:59:18;22.05;;;14.70;;
70838;SDS011;58464;52.298;4.852;2022-10-15T10:01:58;18.30;;;14.45;;
70838;SDS011;58464;52.298;4.852;2022-10-15T10:04:30;19.48;;;15.15;;
70838;SDS011;58464;52.298;4.852;2022-10-15T10:07:02;19.58;;;15.23;;
70838;SDS011;58464;52.298;4.852;2022-10-15T10:11:59;21.33;;;16.02;;
70838;SDS011;58464;52.298;4.852;2022-10-15T10:14:27;17.77;;;14.35;;
70838;SDS011;58464;52.298;4.852;2022-10-15T10:17:29;19.63;;;15.45;;
70838;SDS011;58464;52.298;4.852;2022-10-15T10:22:49;19.83;;;15.30;;
70838;SDS011;58464;52.298;4.852;2022-10-15T10:27:54;19.02;;;15.23;;
70838;SDS011;58464;52.298;4.852;2022-10-15T10:36:25;21.98;;;15.15;;
70838;SDS011;58464;52.298;4.852;2022-10-15T10:38:59;20.13;;;14.27;;
70838;SDS011;58464;52.298;4.852;2022-10-15T10:44:18;21.80;;;16.60;;
70838;SDS011;58464;52.298;4.852;2022-10-15T10:49:52;18.38;;;14.63;;
70838;SDS011;58464;52.298;4.852;2022-10-15T10:52:32;25.02;;;16.30;;
70838;SDS011;58464;52.298;4.852;2022-10-15T10:57:43;18.98;;;14.75;;
70838;SDS011;58464;52.298;4.852;2022-10-15T11:02:59;17.40;;;12.82;;
70838;SDS011;58464;52.298;4.852;2022-10-15T11:05:26;17.83;;;13.10;;
70838;SDS011;58464;52.298;4.852;2022-10-15T11:10:27;18.67;;;11.13;;
70838;SDS011;58464;52.298;4.852;2022-10-15T11:18:45;10.30;;;8.23;;
70838;SDS011;58464;52.298;4.852;2022-10-15T11:24:09;11.52;;;8.38;;
70838;SDS011;58464;52.298;4.852;2022-10-15T11:26:49;10.48;;;7.80;;
70838;SDS011;58464;52.298;4.852;2022-10-15T11:29:23;10.05;;;6.93;;
70838;SDS011;58464;52.298;4.852;2022-10-15T11:32:26;8.70;;;6.50;;
70838;SDS011;58464;52.298;4.852;2022-10-15T11:35:32;8.93;;;6.50;;
70838;SDS011;58464;52.298;4.852;2022-10-15T11:43:31;4.95;;;4.07;;
70838;SDS011;58464;52.298;4.852;2022-10-15T11:54:41;6.25;;;4.78;;
70838;SDS011;58464;52.298;4.852;2022-10-15T11:57:18;7.43;;;5.18;;
70838;SDS011;58464;52.298;4.852;2022-10-15T11:59:48;7.53;;;4.22;;
70838;SDS011;58464;52.298;4.852;2022-10-15T12:02:36;9.40;;;4.03;;
70838;SDS011;58464;52.298;4.852;2022-10-15T12:07:39;6.28;;;4.25;;
70838;SDS011;58464;52.298;4.852;2022-10-15T12:21:25;5.38;;;4.05;;
70838;SDS011;58464;52.298;4.852;2022-10-15T12:24:00;6.88;;;4.50;;
70838;SDS011;58464;52.298;4.852;2022-10-15T12:26:28;5.32;;;4.38;;
70838;SDS011;58464;52.298;4.852;2022-10-15T12:29:00;5.78;;;4.25;;
70838;SDS011;58464;52.298;4.852;2022-10-15T12:34:24;5.15;;;4.65;;
70838;SDS011;58464;52.298;4.852;2022-10-15T12:36:59;6.03;;;4.68;;
70838;SDS011;58464;52.298;4.852;2022-10-15T12:39:27;6.57;;;4.45;;
70838;SDS011;58464;52.298;4.852;2022-10-15T12:41:53;8.13;;;5.28;;
70838;SDS011;58464;52.298;4.852;2022-10-15T12:44:20;8.18;;;5.60;;
70838;SDS011;58464;52.298;4.852;2022-10-15T12:46:53;7.63;;;5.50;;
70838;SDS011;58464;52.298;4.852;2022-10-15T12:51:54;7.32;;;5.95;;
70838;SDS011;58464;52.298;4.852;2022-10-15T12:54:34;5.80;;;3.92;;
70838;SDS011;58464;52.298;4.852;2022-10-15T13:02:49;6.70;;;5.25;;
70838;SDS011;58464;52.298;4.852;2022-10-15T13:07:48;9.60;;;5.38;;
70838;SDS011;58464;52.298;4.852;2022-10-15T13:10:19;12.27;;;5.88;;
70838;SDS011;58464;52.298;4.852;2022-10-15T13:12:58;6.05;;;4.95;;
70838;SDS011;58464;52.298;4.852;2022-10-15T13:15:28;8.50;;;6.28;;
70838;SDS011;58464;52.298;4.852;2022-10-15T13:17:55;7.05;;;5.45;;
70838;SDS011;58464;52.298;4.852;2022-10-15T13:23:18;5.57;;;4.60;;
70838;SDS011;58464;52.298;4.852;2022-10-15T13:26:09;6.43;;;4.18;;
70838;SDS011;58464;52.298;4.852;2022-10-15T13:28:38;6.15;;;3.72;;
70838;SDS011;58464;52.298;4.852;2022-10-15T13:31:06;4.13;;;3.17;;
70838;SDS011;58464;52.298;4.852;2022-10-15T13:33:55;4.13;;;3.10;;
70838;SDS011;58464;52.298;4.852;2022-10-15T13:36:26;3.90;;;2.92;;
70838;SDS011;58464;52.298;4.852;2022-10-15T13:38:56;4.05;;;2.35;;
70838;SDS011;58464;52.298;4.852;2022-10-15T13:41:24;3.85;;;2.30;;
70838;SDS011;58464;52.298;4.852;2022-10-15T13:43:55;3.08;;;2.13;;
70838;SDS011;58464;52.298;4.852;2022-10-15T13:46:29;10.18;;;1.75;;
70838;SDS011;58464;52.298;4.852;2022-10-15T13:48:56;7.88;;;3.50;;
70838;SDS011;58464;52.298;4.852;2022-10-15T13:51:25;4.85;;;2.33;;
70838;SDS011;58464;52.298;4.852;2022-10-15T13:53:56;4.82;;;2.28;;
70838;SDS011;58464;52.298;4.852;2022-10-15T13:56:29;5.88;;;2.25;;
70838;SDS011;58464;52.298;4.852;2022-10-15T13:58:56;6.28;;;2.03;;
70838;SDS011;58464;52.298;4.852;2022-10-15T14:01:26;4.90;;;1.55;;
70838;SDS011;58464;52.298;4.852;2022-10-15T14:03:57;8.40;;;2.80;;
70838;SDS011;58464;52.298;4.852;2022-10-15T14:08:50;9.35;;;2.20;;
70838;SDS011;58464;52.298;4.852;2022-10-15T14:11:17;3.05;;;1.08;;
70838;SDS011;58464;52.298;4.852;2022-10-15T14:13:43;9.55;;;2.35;;
70838;SDS011;58464;52.298;4.852;2022-10-15T14:21:30;8.35;;;2.70;;
70838;SDS011;58464;52.298;4.852;2022-10-15T14:24:03;11.15;;;2.30;;
70838;SDS011;58464;52.298;4.852;2022-10-15T14:26:34;5.18;;;1.50;;
70838;SDS011;58464;52.298;4.852;2022-10-15T14:29:00;4.55;;;1.40;;
70838;SDS011;58464;52.298;4.852;2022-10-15T14:31:37;7.05;;;2.05;;
70838;SDS011;58464;52.298;4.852;2022-10-15T14:34:04;7.00;;;1.58;;
70838;SDS011;58464;52.298;4.852;2022-10-15T14:36:49;8.20;;;2.55;;
70838;SDS011;58464;52.298;4.852;2022-10-15T14:39:32;8.43;;;1.60;;
70838;SDS011;58464;52.298;4.852;2022-10-15T14:42:03;3.33;;;0.95;;
70838;SDS011;58464;52.298;4.852;2022-10-15T14:44:41;8.63;;;2.00;;
70838;SDS011;58464;52.298;4.852;2022-10-15T14:47:14;7.10;;;1.73;;
70838;SDS011;58464;52.298;4.852;2022-10-15T14:49:56;7.60;;;1.60;;
70838;SDS011;58464;52.298;4.852;2022-10-15T14:52:24;8.48;;;1.83;;
70838;SDS011;58464;52.298;4.852;2022-10-15T14:54:58;5.85;;;2.25;;
70838;SDS011;58464;52.298;4.852;2022-10-15T14:57:51;6.20;;;1.70;;
70838;SDS011;58464;52.298;4.852;2022-10-15T15:00:26;12.10;;;3.08;;
70838;SDS011;58464;52.298;4.852;2022-10-15T15:02:53;5.15;;;1.60;;
70838;SDS011;58464;52.298;4.852;2022-10-15T15:05:22;6.22;;;2.55;;
70838;SDS011;58464;52.298;4.852;2022-10-15T15:07:50;9.07;;;1.90;;
70838;SDS011;58464;52.298;4.852;2022-10-15T15:10:15;12.23;;;2.35;;
70838;SDS011;58464;52.298;4.852;2022-10-15T15:12:42;7.45;;;1.90;;
70838;SDS011;58464;52.298;4.852;2022-10-15T15:15:13;6.22;;;1.60;;
70838;SDS011;58464;52.298;4.852;2022-10-15T15:17:40;12.10;;;2.92;;
70838;SDS011;58464;52.298;4.852;2022-10-15T15:20:06;9.90;;;3.47;;
70838;SDS011;58464;52.298;4.852;2022-10-15T15:22:32;5.72;;;2.10;;
70838;SDS011;58464;52.298;4.852;2022-10-15T15:24:59;10.18;;;3.53;;
70838;SDS011;58464;52.298;4.852;2022-10-15T15:27:28;12.57;;;3.30;;
70838;SDS011;58464;52.298;4.852;2022-10-15T15:29:55;7.70;;;2.95;;
70838;SDS011;58464;52.298;4.852;2022-10-15T15:32:22;7.05;;;2.65;;
70838;SDS011;58464;52.298;4.852;2022-10-15T15:34:48;8.95;;;3.10;;
70838;SDS011;58464;52.298;4.852;2022-10-15T15:37:17;9.60;;;3.92;;
70838;SDS011;58464;52.298;4.852;2022-10-15T15:39:47;10.63;;;3.22;;
70838;SDS011;58464;52.298;4.852;2022-10-15T15:42:18;9.00;;;2.83;;
70838;SDS011;58464;52.298;4.852;2022-10-15T15:44:45;11.73;;;3.33;;
70838;SDS011;58464;52.298;4.852;2022-10-15T15:47:13;10.27;;;3.58;;
70838;SDS011;58464;52.298;4.852;2022-10-15T15:49:40;9.25;;;3.25;;
70838;SDS011;58464;52.298;4.852;2022-10-15T15:52:06;10.48;;;3.20;;
70838;SDS011;58464;52.298;4.852;2022-10-15T15:54:38;10.40;;;3.03;;
70838;SDS011;58464;52.298;4.852;2022-10-15T15:57:04;9.25;;;4.70;;
70838;SDS011;58464;52.298;4.852;2022-10-15T15:59:29;14.93;;;7.43;;
70838;SDS011;58464;52.298;4.852;2022-10-15T16:01:55;12.25;;;4.22;;
70838;SDS011;58464;52.298;4.852;2022-10-15T16:04:20;11.75;;;2.80;;
70838;SDS011;58464;52.298;4.852;2022-10-15T16:06:46;9.85;;;3.47;;
70838;SDS011;58464;52.298;4.852;2022-10-15T16:09:15;8.13;;;2.28;;
70838;SDS011;58464;52.298;4.852;2022-10-15T16:11:44;10.10;;;2.38;;
70838;SDS011;58464;52.298;4.852;2022-10-15T16:14:10;6.13;;;2.15;;
70838;SDS011;58464;52.298;4.852;2022-10-15T16:16:35;14.13;;;3.25;;
70838;SDS011;58464;52.298;4.852;2022-10-15T16:19:01;8.95;;;3.10;;
70838;SDS011;58464;52.298;4.852;2022-10-15T16:21:27;9.90;;;3.33;;
70838;SDS011;58464;52.298;4.852;2022-10-15T16:23:53;11.20;;;3.50;;
70838;SDS011;58464;52.298;4.852;2022-10-15T16:26:18;10.13;;;3.40;;
70838;SDS011;58464;52.298;4.852;2022-10-15T16:28:44;8.57;;;3.00;;
70838;SDS011;58464;52.298;4.852;2022-10-15T16:31:17;9.18;;;4.05;;
70838;SDS011;58464;52.298;4.852;2022-10-15T16:33:43;15.20;;;3.03;;
70838;SDS011;58464;52.298;4.852;2022-10-15T16:36:08;13.95;;;3.25;;
70838;SDS011;58464;52.298;4.852;2022-10-15T16:38:34;10.25;;;3.47;;
70838;SDS011;58464;52.298;4.852;2022-10-15T16:40:59;12.18;;;3.17;;
70838;SDS011;58464;52.298;4.852;2022-10-15T16:43:25;8.95;;;1.83;;
70838;SDS011;58464;52.298;4.852;2022-10-15T16:45:55;6.82;;;1.75;;
70838;SDS011;58464;52.298;4.852;2022-10-15T16:48:22;13.70;;;3.22;;
70838;SDS011;58464;52.298;4.852;2022-10-15T16:50:56;9.35;;;2.63;;
70838;SDS011;58464;52.298;4.852;2022-10-15T16:53:26;10.55;;;2.40;;
70838;SDS011;58464;52.298;4.852;2022-10-15T16:55:52;11.20;;;2.42;;
70838;SDS011;58464;52.298;4.852;2022-10-15T16:58:17;6.10;;;2.30;;